sensor_id;sensor_type;location;lat;lon;timestamp;P1;durP1;ratioP1;P2;durP2;ratioP2
25237;SDS011;13185;50.872;5.306;2023-03-01T00:01:06;7.30;;;4.97;;
25237;SDS011;13185;50.872;5.306;2023-03-01T00:03:34;7.73;;;5.13;;
25237;SDS011;13185;50.872;5.306;2023-03-01T00:06:00;6.50;;;4.77;;
25237;SDS011;13185;50.872;5.306;2023-03-01T00:08:26;6.87;;;4.50;;
25237;SDS011;13185;50.872;5.306;2023-03-01T00:13:40;6.90;;;4.40;;
25237;SDS011;13185;50.872;5.306;2023-03-01T00:16:08;7.80;;;5.30;;
25237;SDS011;13185;50.872;5.306;2023-03-01T00:18:38;6.13;;;4.77;;
25237;SDS011;13185;50.872;5.306;2023-03-01T00:21:03;6.57;;;4.80;;
25237;SDS011;13185;50.872;5.306;2023-03-01T00:23:30;7.10;;;5.33;;
25237;SDS011;13185;50.872;5.306;2023-03-01T00:25:58;6.30;;;4.40;;
25237;SDS011;13185;50.872;5.306;2023-03-01T00:28:23;8.67;;;4.77;;
25237;SDS011;13185;50.872;5.306;2023-03-01T00:30:49;7.07;;;4.50;;
25237;SDS011;13185;50.872;5.306;2023-03-01T00:33:14;9.37;;;4.87;;
25237;SDS011;13185;50.872;5.306;2023-03-01T00:35:40;6.37;;;4.57;;
25237;SDS011;13185;50.872;5.306;2023-03-01T00:38:05;8.53;;;5.33;;
25237;SDS011;13185;50.872;5.306;2023-03-01T00:40:32;9.90;;;5.17;;
25237;SDS011;13185;50.872;5.306;2023-03-01T00:42:59;7.53;;;4.83;;
25237;SDS011;13185;50.872;5.306;2023-03-01T00:45:25;6.97;;;4.60;;
25237;SDS011;13185;50.872;5.306;2023-03-01T00:47:52;6.77;;;4.77;;
25237;SDS011;13185;50.872;5.306;2023-03-01T00:50:18;9.33;;;4.97;;
25237;SDS011;13185;50.872;5.306;2023-03-01T00:52:44;7.73;;;5.00;;
25237;SDS011;13185;50.872;5.306;2023-03-01T00:55:10;7.40;;;4.63;;
25237;SDS011;13185;50.872;5.306;2023-03-01T00:57:36;7.90;;;5.33;;
25237;SDS011;13185;50.872;5.306;2023-03-01T01:00:02;7.93;;;4.67;;
25237;SDS011;13185;50.872;5.306;2023-03-01T01:02:31;10.10;;;5.13;;
25237;SDS011;13185;50.872;5.306;2023-03-01T01:04:59;6.53;;;5.07;;
25237;SDS011;13185;50.872;5.306;2023-03-01T01:07:25;7.67;;;5.53;;
25237;SDS011;13185;50.872;5.306;2023-03-01T01:09:50;9.57;;;5.57;;
25237;SDS011;13185;50.872;5.306;2023-03-01T01:12:16;7.27;;;5.47;;
25237;SDS011;13185;50.872;5.306;2023-03-01T01:14:41;8.07;;;5.03;;
25237;SDS011;13185;50.872;5.306;2023-03-01T01:17:08;6.57;;;5.13;;
25237;SDS011;13185;50.872;5.306;2023-03-01T01:19:33;8.47;;;6.00;;
25237;SDS011;13185;50.872;5.306;2023-03-01T01:21:59;8.67;;;5.23;;
25237;SDS011;13185;50.872;5.306;2023-03-01T01:24:25;7.27;;;4.90;;
25237;SDS011;13185;50.872;5.306;2023-03-01T01:26:50;7.47;;;5.47;;
25237;SDS011;13185;50.872;5.306;2023-03-01T01:29:15;7.23;;;4.97;;
25237;SDS011;13185;50.872;5.306;2023-03-01T01:31:42;8.43;;;4.70;;
25237;SDS011;13185;50.872;5.306;2023-03-01T01:34:08;8.27;;;5.53;;
25237;SDS011;13185;50.872;5.306;2023-03-01T01:36:39;8.27;;;5.03;;
25237;SDS011;13185;50.872;5.306;2023-03-01T01:39:04;9.20;;;5.20;;
25237;SDS011;13185;50.872;5.306;2023-03-01T01:41:31;7.40;;;4.87;;
25237;SDS011;13185;50.872;5.306;2023-03-01T01:46:45;7.50;;;4.93;;
25237;SDS011;13185;50.872;5.306;2023-03-01T01:49:26;7.70;;;5.23;;
25237;SDS011;13185;50.872;5.306;2023-03-01T01:51:57;9.63;;;6.00;;
25237;SDS011;13185;50.872;5.306;2023-03-01T01:54:50;7.57;;;5.13;;
25237;SDS011;13185;50.872;5.306;2023-03-01T01:57:24;8.00;;;5.17;;
25237;SDS011;13185;50.872;5.306;2023-03-01T01:59:56;6.87;;;5.17;;
25237;SDS011;13185;50.872;5.306;2023-03-01T02:02:25;7.37;;;5.57;;
25237;SDS011;13185;50.872;5.306;2023-03-01T02:04:53;7.43;;;5.17;;
25237;SDS011;13185;50.872;5.306;2023-03-01T02:07:28;8.33;;;5.40;;
25237;SDS011;13185;50.872;5.306;2023-03-01T02:09:55;7.90;;;5.37;;
25237;SDS011;13185;50.872;5.306;2023-03-01T02:12:21;12.97;;;5.17;;
25237;SDS011;13185;50.872;5.306;2023-03-01T02:14:49;12.20;;;5.53;;
25237;SDS011;13185;50.872;5.306;2023-03-01T02:17:15;7.80;;;5.40;;
25237;SDS011;13185;50.872;5.306;2023-03-01T02:22:34;6.70;;;5.60;;
25237;SDS011;13185;50.872;5.306;2023-03-01T02:25:12;8.70;;;5.80;;
25237;SDS011;13185;50.872;5.306;2023-03-01T02:30:17;7.50;;;4.87;;
25237;SDS011;13185;50.872;5.306;2023-03-01T02:32:44;8.30;;;5.37;;
25237;SDS011;13185;50.872;5.306;2023-03-01T02:35:12;8.40;;;5.63;;
25237;SDS011;13185;50.872;5.306;2023-03-01T02:37:41;8.90;;;5.53;;
25237;SDS011;13185;50.872;5.306;2023-03-01T02:40:09;7.77;;;5.13;;
25237;SDS011;13185;50.872;5.306;2023-03-01T02:42:45;9.47;;;5.93;;
25237;SDS011;13185;50.872;5.306;2023-03-01T02:45:15;7.80;;;5.70;;
25237;SDS011;13185;50.872;5.306;2023-03-01T02:47:41;7.40;;;5.87;;
25237;SDS011;13185;50.872;5.306;2023-03-01T02:50:25;8.30;;;5.57;;
25237;SDS011;13185;50.872;5.306;2023-03-01T02:55:40;8.77;;;6.33;;
25237;SDS011;13185;50.872;5.306;2023-03-01T02:58:06;7.73;;;5.57;;
25237;SDS011;13185;50.872;5.306;2023-03-01T03:00:38;7.40;;;5.37;;
25237;SDS011;13185;50.872;5.306;2023-03-01T03:03:09;18.83;;;6.10;;
25237;SDS011;13185;50.872;5.306;2023-03-01T03:05:38;7.17;;;5.07;;
25237;SDS011;13185;50.872;5.306;2023-03-01T03:08:03;9.03;;;5.97;;
25237;SDS011;13185;50.872;5.306;2023-03-01T03:10:35;6.50;;;5.20;;
25237;SDS011;13185;50.872;5.306;2023-03-01T03:13:12;10.40;;;5.70;;
25237;SDS011;13185;50.872;5.306;2023-03-01T03:15:39;6.53;;;5.20;;
25237;SDS011;13185;50.872;5.306;2023-03-01T03:18:07;7.50;;;5.50;;
25237;SDS011;13185;50.872;5.306;2023-03-01T03:20:36;6.70;;;5.97;;
25237;SDS011;13185;50.872;5.306;2023-03-01T03:23:03;6.87;;;5.50;;
25237;SDS011;13185;50.872;5.306;2023-03-01T03:25:28;7.13;;;5.53;;
25237;SDS011;13185;50.872;5.306;2023-03-01T03:27:54;8.40;;;6.47;;
25237;SDS011;13185;50.872;5.306;2023-03-01T03:30:25;8.70;;;5.70;;
25237;SDS011;13185;50.872;5.306;2023-03-01T03:32:52;8.77;;;5.27;;
25237;SDS011;13185;50.872;5.306;2023-03-01T03:35:19;7.33;;;5.90;;
25237;SDS011;13185;50.872;5.306;2023-03-01T03:37:49;8.77;;;6.17;;
25237;SDS011;13185;50.872;5.306;2023-03-01T03:40:35;9.10;;;5.60;;
25237;SDS011;13185;50.872;5.306;2023-03-01T03:43:03;12.87;;;6.70;;
25237;SDS011;13185;50.872;5.306;2023-03-01T03:45:30;8.70;;;5.60;;
25237;SDS011;13185;50.872;5.306;2023-03-01T03:47:58;9.70;;;5.67;;
25237;SDS011;13185;50.872;5.306;2023-03-01T03:50:25;8.37;;;5.60;;
25237;SDS011;13185;50.872;5.306;2023-03-01T03:52:50;9.53;;;5.93;;
25237;SDS011;13185;50.872;5.306;2023-03-01T03:55:16;8.77;;;6.17;;
25237;SDS011;13185;50.872;5.306;2023-03-01T03:57:45;8.80;;;6.67;;
25237;SDS011;13185;50.872;5.306;2023-03-01T04:00:18;9.07;;;5.70;;
25237;SDS011;13185;50.872;5.306;2023-03-01T04:02:46;8.23;;;6.53;;
25237;SDS011;13185;50.872;5.306;2023-03-01T04:05:13;8.73;;;6.10;;
25237;SDS011;13185;50.872;5.306;2023-03-01T04:07:41;7.27;;;6.20;;
25237;SDS011;13185;50.872;5.306;2023-03-01T04:10:08;7.77;;;5.87;;
25237;SDS011;13185;50.872;5.306;2023-03-01T04:12:35;9.53;;;6.10;;
25237;SDS011;13185;50.872;5.306;2023-03-01T04:15:05;7.73;;;6.13;;
25237;SDS011;13185;50.872;5.306;2023-03-01T04:17:42;9.97;;;6.20;;
25237;SDS011;13185;50.872;5.306;2023-03-01T04:20:09;9.23;;;6.00;;
25237;SDS011;13185;50.872;5.306;2023-03-01T04:22:36;9.17;;;6.70;;
25237;SDS011;13185;50.872;5.306;2023-03-01T04:25:03;10.67;;;6.43;;
25237;SDS011;13185;50.872;5.306;2023-03-01T04:27:30;7.83;;;5.90;;
25237;SDS011;13185;50.872;5.306;2023-03-01T04:29:55;7.50;;;6.17;;
25237;SDS011;13185;50.872;5.306;2023-03-01T04:32:20;10.37;;;6.43;;
25237;SDS011;13185;50.872;5.306;2023-03-01T04:34:46;8.23;;;6.03;;
25237;SDS011;13185;50.872;5.306;2023-03-01T04:37:11;11.40;;;7.10;;
25237;SDS011;13185;50.872;5.306;2023-03-01T04:39:37;9.77;;;6.67;;
25237;SDS011;13185;50.872;5.306;2023-03-01T04:42:11;9.10;;;6.75;;
25237;SDS011;13185;50.872;5.306;2023-03-01T04:44:36;8.50;;;6.43;;
25237;SDS011;13185;50.872;5.306;2023-03-01T04:47:02;10.13;;;6.70;;
25237;SDS011;13185;50.872;5.306;2023-03-01T04:49:28;10.00;;;6.60;;
25237;SDS011;13185;50.872;5.306;2023-03-01T04:51:54;12.10;;;6.93;;
25237;SDS011;13185;50.872;5.306;2023-03-01T04:54:19;8.13;;;6.60;;
25237;SDS011;13185;50.872;5.306;2023-03-01T04:56:45;9.87;;;6.93;;
25237;SDS011;13185;50.872;5.306;2023-03-01T04:59:10;10.10;;;6.93;;
25237;SDS011;13185;50.872;5.306;2023-03-01T05:01:38;10.13;;;7.13;;
25237;SDS011;13185;50.872;5.306;2023-03-01T05:04:04;10.93;;;7.13;;
25237;SDS011;13185;50.872;5.306;2023-03-01T05:06:30;9.03;;;6.57;;
25237;SDS011;13185;50.872;5.306;2023-03-01T05:08:56;8.80;;;6.77;;
25237;SDS011;13185;50.872;5.306;2023-03-01T05:11:22;9.83;;;6.90;;
25237;SDS011;13185;50.872;5.306;2023-03-01T05:13:48;9.80;;;6.97;;
25237;SDS011;13185;50.872;5.306;2023-03-01T05:16:15;9.40;;;7.20;;
25237;SDS011;13185;50.872;5.306;2023-03-01T05:18:41;10.17;;;7.23;;
25237;SDS011;13185;50.872;5.306;2023-03-01T05:21:09;12.90;;;7.40;;
25237;SDS011;13185;50.872;5.306;2023-03-01T05:23:37;11.03;;;7.23;;
25237;SDS011;13185;50.872;5.306;2023-03-01T05:26:03;10.50;;;6.70;;
25237;SDS011;13185;50.872;5.306;2023-03-01T05:28:31;9.30;;;6.47;;
25237;SDS011;13185;50.872;5.306;2023-03-01T05:30:57;9.67;;;7.27;;
25237;SDS011;13185;50.872;5.306;2023-03-01T05:33:23;13.60;;;7.43;;
25237;SDS011;13185;50.872;5.306;2023-03-01T05:35:49;10.83;;;7.50;;
25237;SDS011;13185;50.872;5.306;2023-03-01T05:38:17;9.63;;;7.10;;
25237;SDS011;13185;50.872;5.306;2023-03-01T05:40:43;11.13;;;6.77;;
25237;SDS011;13185;50.872;5.306;2023-03-01T05:43:12;10.40;;;7.57;;
25237;SDS011;13185;50.872;5.306;2023-03-01T05:45:39;11.30;;;6.83;;
25237;SDS011;13185;50.872;5.306;2023-03-01T05:48:06;12.37;;;7.30;;
25237;SDS011;13185;50.872;5.306;2023-03-01T05:50:33;11.53;;;7.27;;
25237;SDS011;13185;50.872;5.306;2023-03-01T05:53:02;9.60;;;6.80;;
25237;SDS011;13185;50.872;5.306;2023-03-01T05:55:39;9.73;;;7.27;;
25237;SDS011;13185;50.872;5.306;2023-03-01T05:58:05;10.63;;;7.50;;
25237;SDS011;13185;50.872;5.306;2023-03-01T06:00:34;12.00;;;7.47;;
25237;SDS011;13185;50.872;5.306;2023-03-01T06:03:00;10.90;;;7.67;;
25237;SDS011;13185;50.872;5.306;2023-03-01T06:05:26;9.80;;;7.70;;
25237;SDS011;13185;50.872;5.306;2023-03-01T06:07:52;9.90;;;7.13;;
25237;SDS011;13185;50.872;5.306;2023-03-01T06:10:19;9.20;;;7.07;;
25237;SDS011;13185;50.872;5.306;2023-03-01T06:12:46;12.37;;;7.23;;
25237;SDS011;13185;50.872;5.306;2023-03-01T06:15:12;14.70;;;7.33;;
25237;SDS011;13185;50.872;5.306;2023-03-01T06:17:40;12.57;;;7.20;;
25237;SDS011;13185;50.872;5.306;2023-03-01T06:20:11;11.93;;;7.80;;
25237;SDS011;13185;50.872;5.306;2023-03-01T06:22:39;10.00;;;7.60;;
25237;SDS011;13185;50.872;5.306;2023-03-01T06:25:06;11.37;;;7.50;;
25237;SDS011;13185;50.872;5.306;2023-03-01T06:27:32;9.97;;;7.30;;
25237;SDS011;13185;50.872;5.306;2023-03-01T06:29:58;13.43;;;7.90;;
25237;SDS011;13185;50.872;5.306;2023-03-01T06:32:23;10.13;;;7.33;;
25237;SDS011;13185;50.872;5.306;2023-03-01T06:34:49;10.97;;;8.30;;
25237;SDS011;13185;50.872;5.306;2023-03-01T06:37:15;12.33;;;7.43;;
25237;SDS011;13185;50.872;5.306;2023-03-01T06:39:40;10.20;;;7.80;;
25237;SDS011;13185;50.872;5.306;2023-03-01T06:42:07;10.37;;;7.90;;
25237;SDS011;13185;50.872;5.306;2023-03-01T06:44:33;11.17;;;7.80;;
25237;SDS011;13185;50.872;5.306;2023-03-01T06:46:58;12.33;;;7.93;;
25237;SDS011;13185;50.872;5.306;2023-03-01T06:49:24;12.07;;;8.37;;
25237;SDS011;13185;50.872;5.306;2023-03-01T06:51:50;12.47;;;7.83;;
25237;SDS011;13185;50.872;5.306;2023-03-01T06:54:15;12.27;;;7.97;;
25237;SDS011;13185;50.872;5.306;2023-03-01T06:56:42;12.47;;;7.93;;
25237;SDS011;13185;50.872;5.306;2023-03-01T06:59:11;15.23;;;8.40;;
25237;SDS011;13185;50.872;5.306;2023-03-01T07:01:36;12.03;;;8.40;;
25237;SDS011;13185;50.872;5.306;2023-03-01T07:04:02;14.37;;;8.10;;
25237;SDS011;13185;50.872;5.306;2023-03-01T07:06:28;12.83;;;8.50;;
25237;SDS011;13185;50.872;5.306;2023-03-01T07:08:53;10.97;;;7.50;;
25237;SDS011;13185;50.872;5.306;2023-03-01T07:11:18;11.60;;;7.90;;
25237;SDS011;13185;50.872;5.306;2023-03-01T07:13:44;19.73;;;9.40;;
25237;SDS011;13185;50.872;5.306;2023-03-01T07:16:09;13.23;;;9.20;;
25237;SDS011;13185;50.872;5.306;2023-03-01T07:18:35;15.20;;;10.40;;
25237;SDS011;13185;50.872;5.306;2023-03-01T07:21:04;15.13;;;9.30;;
25237;SDS011;13185;50.872;5.306;2023-03-01T07:23:31;14.57;;;8.87;;
25237;SDS011;13185;50.872;5.306;2023-03-01T07:25:57;14.40;;;9.77;;
25237;SDS011;13185;50.872;5.306;2023-03-01T07:28:23;21.37;;;11.27;;
25237;SDS011;13185;50.872;5.306;2023-03-01T07:30:49;13.47;;;9.97;;
25237;SDS011;13185;50.872;5.306;2023-03-01T07:33:14;16.07;;;10.87;;
25237;SDS011;13185;50.872;5.306;2023-03-01T07:35:40;21.03;;;10.53;;
25237;SDS011;13185;50.872;5.306;2023-03-01T07:38:05;15.07;;;8.70;;
25237;SDS011;13185;50.872;5.306;2023-03-01T07:40:31;12.33;;;8.23;;
25237;SDS011;13185;50.872;5.306;2023-03-01T07:42:57;11.87;;;8.17;;
25237;SDS011;13185;50.872;5.306;2023-03-01T07:45:24;15.30;;;8.90;;
25237;SDS011;13185;50.872;5.306;2023-03-01T07:47:50;14.43;;;10.07;;
25237;SDS011;13185;50.872;5.306;2023-03-01T07:50:17;18.37;;;10.40;;
25237;SDS011;13185;50.872;5.306;2023-03-01T07:52:44;16.27;;;9.33;;
25237;SDS011;13185;50.872;5.306;2023-03-01T07:55:11;12.07;;;8.90;;
25237;SDS011;13185;50.872;5.306;2023-03-01T07:57:37;11.80;;;8.67;;
25237;SDS011;13185;50.872;5.306;2023-03-01T08:00:03;11.33;;;8.43;;
25237;SDS011;13185;50.872;5.306;2023-03-01T08:05:02;13.63;;;8.60;;
25237;SDS011;13185;50.872;5.306;2023-03-01T08:07:28;14.70;;;9.53;;
25237;SDS011;13185;50.872;5.306;2023-03-01T08:09:54;12.70;;;8.63;;
25237;SDS011;13185;50.872;5.306;2023-03-01T08:12:19;18.97;;;10.03;;
25237;SDS011;13185;50.872;5.306;2023-03-01T08:14:45;11.33;;;7.70;;
25237;SDS011;13185;50.872;5.306;2023-03-01T08:17:12;11.13;;;8.27;;
25237;SDS011;13185;50.872;5.306;2023-03-01T08:19:38;14.47;;;8.60;;
25237;SDS011;13185;50.872;5.306;2023-03-01T08:22:04;12.93;;;8.93;;
25237;SDS011;13185;50.872;5.306;2023-03-01T08:24:29;15.10;;;9.17;;
25237;SDS011;13185;50.872;5.306;2023-03-01T08:26:55;14.03;;;8.97;;
25237;SDS011;13185;50.872;5.306;2023-03-01T08:29:21;15.40;;;9.10;;
25237;SDS011;13185;50.872;5.306;2023-03-01T08:31:47;13.17;;;8.77;;
25237;SDS011;13185;50.872;5.306;2023-03-01T08:34:15;12.07;;;8.37;;
25237;SDS011;13185;50.872;5.306;2023-03-01T08:36:42;13.33;;;9.67;;
25237;SDS011;13185;50.872;5.306;2023-03-01T08:39:10;12.50;;;8.87;;
25237;SDS011;13185;50.872;5.306;2023-03-01T08:41:38;13.73;;;9.10;;
25237;SDS011;13185;50.872;5.306;2023-03-01T08:44:05;11.73;;;8.50;;
25237;SDS011;13185;50.872;5.306;2023-03-01T08:46:32;12.93;;;9.47;;
25237;SDS011;13185;50.872;5.306;2023-03-01T08:49:03;17.17;;;9.00;;
25237;SDS011;13185;50.872;5.306;2023-03-01T08:51:30;14.07;;;8.70;;
25237;SDS011;13185;50.872;5.306;2023-03-01T08:53:57;11.67;;;8.80;;
25237;SDS011;13185;50.872;5.306;2023-03-01T08:56:23;13.40;;;8.87;;
25237;SDS011;13185;50.872;5.306;2023-03-01T08:58:49;13.57;;;9.27;;
25237;SDS011;13185;50.872;5.306;2023-03-01T09:01:15;13.47;;;9.60;;
25237;SDS011;13185;50.872;5.306;2023-03-01T09:03:43;15.40;;;10.30;;
25237;SDS011;13185;50.872;5.306;2023-03-01T09:06:09;12.03;;;8.87;;
25237;SDS011;13185;50.872;5.306;2023-03-01T09:08:36;11.47;;;9.23;;
25237;SDS011;13185;50.872;5.306;2023-03-01T09:11:03;13.57;;;9.00;;
25237;SDS011;13185;50.872;5.306;2023-03-01T09:13:30;15.67;;;9.23;;
25237;SDS011;13185;50.872;5.306;2023-03-01T09:15:59;12.13;;;9.23;;
25237;SDS011;13185;50.872;5.306;2023-03-01T09:18:26;11.97;;;9.00;;
25237;SDS011;13185;50.872;5.306;2023-03-01T09:20:52;13.70;;;9.27;;
25237;SDS011;13185;50.872;5.306;2023-03-01T09:23:20;13.03;;;8.90;;
25237;SDS011;13185;50.872;5.306;2023-03-01T09:25:46;12.27;;;8.50;;
25237;SDS011;13185;50.872;5.306;2023-03-01T09:28:12;13.23;;;8.67;;
25237;SDS011;13185;50.872;5.306;2023-03-01T09:30:37;14.10;;;9.40;;
25237;SDS011;13185;50.872;5.306;2023-03-01T09:33:03;14.40;;;8.90;;
25237;SDS011;13185;50.872;5.306;2023-03-01T09:35:28;12.97;;;8.80;;
25237;SDS011;13185;50.872;5.306;2023-03-01T09:37:54;11.90;;;9.07;;
25237;SDS011;13185;50.872;5.306;2023-03-01T09:40:21;12.20;;;8.73;;
25237;SDS011;13185;50.872;5.306;2023-03-01T09:45:35;11.70;;;8.03;;
25237;SDS011;13185;50.872;5.306;2023-03-01T09:48:06;12.13;;;8.40;;
25237;SDS011;13185;50.872;5.306;2023-03-01T09:50:43;14.23;;;9.83;;
25237;SDS011;13185;50.872;5.306;2023-03-01T09:53:18;16.53;;;10.93;;
25237;SDS011;13185;50.872;5.306;2023-03-01T09:55:59;13.03;;;8.80;;
25237;SDS011;13185;50.872;5.306;2023-03-01T09:58:43;12.57;;;9.03;;
25237;SDS011;13185;50.872;5.306;2023-03-01T10:01:31;14.00;;;8.77;;
25237;SDS011;13185;50.872;5.306;2023-03-01T10:09:36;11.07;;;8.83;;
25237;SDS011;13185;50.872;5.306;2023-03-01T10:12:14;11.13;;;8.87;;
25237;SDS011;13185;50.872;5.306;2023-03-01T10:17:14;12.53;;;9.73;;
25237;SDS011;13185;50.872;5.306;2023-03-01T10:19:49;17.87;;;10.40;;
25237;SDS011;13185;50.872;5.306;2023-03-01T10:24:40;18.10;;;9.77;;
25237;SDS011;13185;50.872;5.306;2023-03-01T10:27:11;15.73;;;9.43;;
25237;SDS011;13185;50.872;5.306;2023-03-01T10:32:21;13.93;;;9.07;;
25237;SDS011;13185;50.872;5.306;2023-03-01T10:34:47;12.63;;;9.67;;
25237;SDS011;13185;50.872;5.306;2023-03-01T10:37:14;18.10;;;9.07;;
25237;SDS011;13185;50.872;5.306;2023-03-01T10:42:39;11.33;;;8.43;;
25237;SDS011;13185;50.872;5.306;2023-03-01T10:45:16;14.17;;;9.10;;
25237;SDS011;13185;50.872;5.306;2023-03-01T10:50:42;16.77;;;9.80;;
25237;SDS011;13185;50.872;5.306;2023-03-01T10:58:37;13.80;;;8.97;;
25237;SDS011;13185;50.872;5.306;2023-03-01T11:01:26;14.50;;;9.53;;
25237;SDS011;13185;50.872;5.306;2023-03-01T11:06:32;12.93;;;9.17;;
25237;SDS011;13185;50.872;5.306;2023-03-01T11:09:13;14.17;;;9.70;;
25237;SDS011;13185;50.872;5.306;2023-03-01T11:11:39;13.40;;;9.47;;
25237;SDS011;13185;50.872;5.306;2023-03-01T11:16:36;16.40;;;9.67;;
25237;SDS011;13185;50.872;5.306;2023-03-01T11:21:35;15.13;;;9.57;;
25237;SDS011;13185;50.872;5.306;2023-03-01T11:24:08;11.27;;;8.70;;
25237;SDS011;13185;50.872;5.306;2023-03-01T11:26:38;15.43;;;9.17;;
25237;SDS011;13185;50.872;5.306;2023-03-01T11:29:10;12.07;;;8.80;;
25237;SDS011;13185;50.872;5.306;2023-03-01T11:31:41;13.13;;;9.03;;
25237;SDS011;13185;50.872;5.306;2023-03-01T11:34:11;11.83;;;8.93;;
25237;SDS011;13185;50.872;5.306;2023-03-01T11:36:54;16.73;;;8.43;;
25237;SDS011;13185;50.872;5.306;2023-03-01T11:39:27;17.37;;;10.20;;
25237;SDS011;13185;50.872;5.306;2023-03-01T11:42:04;12.67;;;9.60;;
25237;SDS011;13185;50.872;5.306;2023-03-01T11:44:37;11.07;;;8.17;;
25237;SDS011;13185;50.872;5.306;2023-03-01T11:49:57;15.10;;;9.80;;
25237;SDS011;13185;50.872;5.306;2023-03-01T12:01:10;13.23;;;9.13;;
25237;SDS011;13185;50.872;5.306;2023-03-01T12:11:54;12.50;;;8.97;;
25237;SDS011;13185;50.872;5.306;2023-03-01T12:20:22;12.23;;;9.32;;
25237;SDS011;13185;50.872;5.306;2023-03-01T12:28:29;14.23;;;9.93;;
25237;SDS011;13185;50.872;5.306;2023-03-01T12:36:41;13.23;;;9.53;;
25237;SDS011;13185;50.872;5.306;2023-03-01T12:39:24;12.88;;;9.75;;
25237;SDS011;13185;50.872;5.306;2023-03-01T12:50:55;12.35;;;8.80;;
25237;SDS011;13185;50.872;5.306;2023-03-01T12:53:29;11.27;;;8.77;;
25237;SDS011;13185;50.872;5.306;2023-03-01T12:56:19;14.70;;;8.60;;
25237;SDS011;13185;50.872;5.306;2023-03-01T13:11:58;14.25;;;8.02;;
25237;SDS011;13185;50.872;5.306;2023-03-01T13:16:53;9.32;;;7.75;;
25237;SDS011;13185;50.872;5.306;2023-03-01T13:19:23;9.45;;;7.82;;
25237;SDS011;13185;50.872;5.306;2023-03-01T13:21:51;12.27;;;8.32;;
25237;SDS011;13185;50.872;5.306;2023-03-01T13:24:26;14.15;;;7.47;;
25237;SDS011;13185;50.872;5.306;2023-03-01T13:34:54;9.88;;;7.47;;
25237;SDS011;13185;50.872;5.306;2023-03-01T13:42:53;12.70;;;7.80;;
25237;SDS011;13185;50.872;5.306;2023-03-01T13:45:21;8.45;;;7.43;;
25237;SDS011;13185;50.872;5.306;2023-03-01T13:47:54;10.82;;;7.85;;
25237;SDS011;13185;50.872;5.306;2023-03-01T13:50:24;9.80;;;7.47;;
25237;SDS011;13185;50.872;5.306;2023-03-01T13:52:56;9.80;;;7.70;;
25237;SDS011;13185;50.872;5.306;2023-03-01T13:58:24;10.48;;;7.50;;
25237;SDS011;13185;50.872;5.306;2023-03-01T14:01:05;9.43;;;8.23;;
25237;SDS011;13185;50.872;5.306;2023-03-01T14:03:34;10.07;;;7.43;;
25237;SDS011;13185;50.872;5.306;2023-03-01T14:06:07;10.98;;;7.22;;
25237;SDS011;13185;50.872;5.306;2023-03-01T14:08:47;9.63;;;6.90;;
25237;SDS011;13185;50.872;5.306;2023-03-01T14:20:00;9.85;;;6.72;;
25237;SDS011;13185;50.872;5.306;2023-03-01T14:22:34;10.32;;;7.50;;
25237;SDS011;13185;50.872;5.306;2023-03-01T14:25:23;10.63;;;7.60;;
25237;SDS011;13185;50.872;5.306;2023-03-01T14:30:54;10.35;;;7.03;;
25237;SDS011;13185;50.872;5.306;2023-03-01T14:36:03;11.07;;;7.07;;
25237;SDS011;13185;50.872;5.306;2023-03-01T14:38:35;9.63;;;6.75;;
25237;SDS011;13185;50.872;5.306;2023-03-01T14:41:13;8.25;;;6.65;;
25237;SDS011;13185;50.872;5.306;2023-03-01T14:43:42;12.30;;;6.57;;
25237;SDS011;13185;50.872;5.306;2023-03-01T14:46:17;9.45;;;7.05;;
25237;SDS011;13185;50.872;5.306;2023-03-01T14:48:49;9.10;;;6.63;;
25237;SDS011;13185;50.872;5.306;2023-03-01T14:51:16;10.25;;;7.30;;
25237;SDS011;13185;50.872;5.306;2023-03-01T14:53:42;7.60;;;6.10;;
25237;SDS011;13185;50.872;5.306;2023-03-01T14:56:15;11.75;;;7.15;;
25237;SDS011;13185;50.872;5.306;2023-03-01T14:58:45;10.40;;;6.57;;
25237;SDS011;13185;50.872;5.306;2023-03-01T15:01:15;9.90;;;6.30;;
25237;SDS011;13185;50.872;5.306;2023-03-01T15:03:43;9.70;;;6.60;;
25237;SDS011;13185;50.872;5.306;2023-03-01T15:06:11;11.45;;;7.45;;
25237;SDS011;13185;50.872;5.306;2023-03-01T15:08:41;9.73;;;6.47;;
25237;SDS011;13185;50.872;5.306;2023-03-01T15:13:38;10.05;;;6.38;;
25237;SDS011;13185;50.872;5.306;2023-03-01T15:16:05;9.00;;;6.40;;
25237;SDS011;13185;50.872;5.306;2023-03-01T15:18:43;10.38;;;6.40;;
25237;SDS011;13185;50.872;5.306;2023-03-01T15:21:35;9.70;;;5.65;;
25237;SDS011;13185;50.872;5.306;2023-03-01T15:26:31;8.40;;;5.30;;
25237;SDS011;13185;50.872;5.306;2023-03-01T15:29:02;9.82;;;5.78;;
25237;SDS011;13185;50.872;5.306;2023-03-01T15:31:32;10.02;;;5.60;;
25237;SDS011;13185;50.872;5.306;2023-03-01T15:36:45;10.13;;;6.50;;
25237;SDS011;13185;50.872;5.306;2023-03-01T15:42:08;9.20;;;5.90;;
25237;SDS011;13185;50.872;5.306;2023-03-01T15:47:37;10.43;;;5.80;;
25237;SDS011;13185;50.872;5.306;2023-03-01T15:50:05;8.18;;;5.18;;
25237;SDS011;13185;50.872;5.306;2023-03-01T15:52:49;12.00;;;5.55;;
25237;SDS011;13185;50.872;5.306;2023-03-01T15:55:20;7.60;;;5.68;;
25237;SDS011;13185;50.872;5.306;2023-03-01T15:57:49;8.63;;;5.18;;
25237;SDS011;13185;50.872;5.306;2023-03-01T16:00:15;6.60;;;5.03;;
25237;SDS011;13185;50.872;5.306;2023-03-01T16:02:43;6.60;;;5.13;;
25237;SDS011;13185;50.872;5.306;2023-03-01T16:05:15;10.43;;;5.45;;
25237;SDS011;13185;50.872;5.306;2023-03-01T16:07:45;8.57;;;4.57;;
25237;SDS011;13185;50.872;5.306;2023-03-01T16:10:10;7.63;;;4.63;;
25237;SDS011;13185;50.872;5.306;2023-03-01T16:12:36;8.73;;;5.18;;
25237;SDS011;13185;50.872;5.306;2023-03-01T16:15:01;7.75;;;5.32;;
25237;SDS011;13185;50.872;5.306;2023-03-01T16:17:27;6.93;;;5.32;;
25237;SDS011;13185;50.872;5.306;2023-03-01T16:19:53;7.80;;;5.03;;
25237;SDS011;13185;50.872;5.306;2023-03-01T16:22:18;8.45;;;4.88;;
25237;SDS011;13185;50.872;5.306;2023-03-01T16:24:49;7.47;;;4.88;;
25237;SDS011;13185;50.872;5.306;2023-03-01T16:27:15;6.95;;;5.10;;
25237;SDS011;13185;50.872;5.306;2023-03-01T16:29:41;6.47;;;4.63;;
25237;SDS011;13185;50.872;5.306;2023-03-01T16:32:06;6.72;;;5.07;;
25237;SDS011;13185;50.872;5.306;2023-03-01T16:34:32;7.03;;;5.13;;
25237;SDS011;13185;50.872;5.306;2023-03-01T16:36:57;7.93;;;4.95;;
25237;SDS011;13185;50.872;5.306;2023-03-01T16:39:23;6.85;;;4.65;;
25237;SDS011;13185;50.872;5.306;2023-03-01T16:41:48;7.70;;;5.07;;
25237;SDS011;13185;50.872;5.306;2023-03-01T16:44:14;11.30;;;4.68;;
25237;SDS011;13185;50.872;5.306;2023-03-01T16:46:40;6.70;;;4.68;;
25237;SDS011;13185;50.872;5.306;2023-03-01T16:49:07;7.22;;;4.10;;
25237;SDS011;13185;50.872;5.306;2023-03-01T16:51:33;6.03;;;4.28;;
25237;SDS011;13185;50.872;5.306;2023-03-01T16:54:00;7.93;;;4.90;;
25237;SDS011;13185;50.872;5.306;2023-03-01T16:56:27;9.95;;;4.45;;
25237;SDS011;13185;50.872;5.306;2023-03-01T16:58:54;10.43;;;4.50;;
25237;SDS011;13185;50.872;5.306;2023-03-01T17:01:19;7.30;;;4.75;;
25237;SDS011;13185;50.872;5.306;2023-03-01T17:03:48;11.30;;;4.95;;
25237;SDS011;13185;50.872;5.306;2023-03-01T17:06:16;8.15;;;4.95;;
25237;SDS011;13185;50.872;5.306;2023-03-01T17:08:45;6.88;;;4.40;;
25237;SDS011;13185;50.872;5.306;2023-03-01T17:11:12;7.40;;;4.75;;
25237;SDS011;13185;50.872;5.306;2023-03-01T17:13:39;11.10;;;5.20;;
25237;SDS011;13185;50.872;5.306;2023-03-01T17:16:06;8.23;;;4.45;;
25237;SDS011;13185;50.872;5.306;2023-03-01T17:18:33;6.93;;;5.00;;
25237;SDS011;13185;50.872;5.306;2023-03-01T17:20:59;7.78;;;5.10;;
25237;SDS011;13185;50.872;5.306;2023-03-01T17:23:25;9.55;;;5.50;;
25237;SDS011;13185;50.872;5.306;2023-03-01T17:25:52;5.95;;;4.80;;